Kimberling City, Missouri
Current Conditions -  °F | °C
As of 9:55 PM on Wednesday 17 Dec 2014 (Local Time) from KFWB Reporting Station
Light Rain Light Rain  
Wind Chill: 32°   Ceiling: 600
Heat Index: 32°   Visibility: 3mi
Dew Point: 32°   Wind: 3mph
Humidity: 100%   Direction: 140°SE
Pressure: 30.23"   Gusts: NA
Location:  36.63°N, 93.42°W
Report Text: KFWB 180355Z AUTO 14003KT 3SM -RA BKN006 OVC043 00/00 A3023 RMK AO2 P0003
Loading
Personal Weather Stations






























Interactive Weather Map New forecast layout! Learn more

10-Day Weather Forecast

Advertisements
Track Severe Weather on mobile